메인 페이지
METAR-TAF:

METAR-TAF

공항 :

Rochester International Airport

로체스터, 미네소타, 미국

위도: 43-54-15N, 경도: 092-29-30W, 고도: 401m

현재 날씨관측

예보는 43분 전, 10:54시(UTC)에 발표되었습니다.
남남서12kt
온도 -3°C
습도 74%
기압 1014 hPa
시정: 16.1km
맑음

METAR: KRST 281054Z 21012KT 10SM CLR M03/M07 A2993 RMK AO2 SLP151 T10281067 $

시각: 06:37 (11:37 UTC)

예보

예보는 15분 전, 11:22시(UTC)에 발표되었습니다.
예보 대상 시간: 28일 12시부터 29일 12시까지 (UTC)
남서12kt
시정: 10km
맑음
28일 1500시부터 (UTC)
서남서12kt, 순간 최대 풍속 20kt
시정: 10km
고도 25000ft 상공 구름 보통
28일 2200시부터 (UTC)
서북서10kt
시정: 10km
고도 25000ft 상공 구름 보통
29일 0200시부터 (UTC)
북북서9kt
시정: 10km
고도 10000ft 상공 구름 많음
29일 0600시부터 (UTC)
9kt
시정: 10km
고도 1000ft 상공 구름 많음

TAF: KRST 281122Z 2812/2912 22012KT P6SM SKC FM281500 24012G20KT P6SM SCT250 FM282200 30010KT P6SM SCT250 FM290200 33009KT P6SM BKN100 FM290600 35009KT P6SM BKN010

4,000개 이상의 공항 관측 자료 및 예보 (METAR 및 TAF 보고).

지도상에서 검색 가능한 기상관측소가 노란 점과 빨간 점으로 표시되어 있습니다.

기상관측소 명을 보려면 표시 위로 마우스를 이동하세요.

날씨 관측과 예보를 보려면 클릭하세요.

지도 변경 : 확대하려면 엑스 표시가 있는 녹색 버튼, 축소하려면 빼기 표시가 있는 녹색 버튼, 다음 페이지의 지도를 보려면 녹색 화살표를 클릭하세요.


METAR-TAF: